Time;durP1;ratioP1;P1;durP2;ratioP2;P2;SDS_P1;SDS_P2;PMS_P1;PMS_P2;Temp;Humidity;BMP_temperature;BMP_pressure;BME280_temperature;BME280_humidity;BME280_pressure;Samples;Min_cycle;Max_cycle;Signal;HPM_P1;HPM_P2
2023/01/06 00:00:16;;;;;;;13.25;4.75;;;10.10;99.90;;;;;;5014884;28;20063;-68
2023/01/06 00:02:44;;;;;;;13.65;5.45;;;10.20;99.90;;;;;;5014892;28;20038;-68
2023/01/06 00:05:10;;;;;;;11.07;4.60;;;10.20;99.90;;;;;;5032181;28;20060;-67
2023/01/06 00:07:35;;;;;;;11.35;5.07;;;10.10;99.90;;;;;;5014636;28;20124;-68
2023/01/06 00:10:01;;;;;;;13.05;5.18;;;10.20;99.90;;;;;;5014989;28;20080;-68
2023/01/06 00:12:26;;;;;;;17.98;6.43;;;10.10;99.90;;;;;;5032486;28;20044;-68
2023/01/06 00:14:52;;;;;;;7.82;4.88;;;10.20;99.90;;;;;;5032383;28;20439;-68
2023/01/06 00:17:18;;;;;;;12.55;5.43;;;10.20;99.90;;;;;;5014517;28;20184;-67
2023/01/06 00:19:43;;;;;;;10.63;5.10;;;10.20;99.90;;;;;;5032160;28;20400;-68
2023/01/06 00:22:09;;;;;;;10.52;4.68;;;10.20;99.90;;;;;;5015195;28;20069;-68
2023/01/06 00:24:34;;;;;;;16.27;6.20;;;10.20;99.90;;;;;;5018244;28;20046;-67
2023/01/06 00:27:00;;;;;;;10.85;5.15;;;10.20;99.90;;;;;;5036181;28;20095;-67
2023/01/06 00:29:26;;;;;;;8.65;5.05;;;10.20;99.90;;;;;;5017891;28;20046;-67
2023/01/06 00:31:52;;;;;;;8.30;4.32;;;10.20;99.90;;;;;;5017827;28;20202;-68
2023/01/06 00:34:18;;;;;;;14.27;5.97;;;10.20;99.90;;;;;;5017852;28;20132;-67
2023/01/06 00:36:44;;;;;;;13.20;4.93;;;10.40;99.90;;;;;;5017731;28;20044;-68
2023/01/06 00:39:12;;;;;;;10.40;4.72;;;10.20;99.90;;;;;;5035666;28;20388;-68
2023/01/06 00:44:23;;;;;;;6.88;3.80;;;10.20;99.90;;;;;;5017508;28;20053;-68
2023/01/06 00:46:49;;;;;;;11.93;5.90;;;10.20;99.90;;;;;;5035341;28;20075;-68
2023/01/06 00:49:15;;;;;;;9.73;5.72;;;10.20;99.90;;;;;;5035286;28;20033;-68
2023/01/06 00:51:40;;;;;;;10.60;4.60;;;10.20;99.90;;;;;;5035110;28;20072;-68
2023/01/06 00:54:08;;;;;;;8.80;5.35;;;10.20;99.90;;;;;;5035041;28;20124;-67
2023/01/06 00:56:41;;;;;;;8.73;5.00;;;10.60;99.90;;;;;;5035385;28;20033;-68
2023/01/06 00:59:08;;;;;;;12.50;5.85;;;10.30;99.90;;;;;;5017324;28;20113;-67
2023/01/06 01:01:34;;;;;;;7.32;3.85;;;10.30;99.90;;;;;;5017344;28;20116;-68
2023/01/06 01:04:00;;;;;;;9.30;4.07;;;10.40;99.90;;;;;;5017242;28;20047;-68
2023/01/06 01:06:26;;;;;;;11.48;6.20;;;10.40;99.90;;;;;;5017065;28;20140;-68
2023/01/06 01:08:56;;;;;;;7.20;4.72;;;10.60;99.90;;;;;;5035105;28;20408;-68
2023/01/06 01:14:06;;;;;;;8.52;4.28;;;10.40;99.90;;;;;;5016901;28;20124;-68
2023/01/06 01:16:32;;;;;;;10.32;5.07;;;10.40;99.90;;;;;;5034672;28;20478;-68
2023/01/06 01:18:58;;;;;;;14.95;4.75;;;10.40;99.90;;;;;;5017328;28;20037;-68
2023/01/06 01:21:24;;;;;;;8.35;4.28;;;10.40;99.90;;;;;;5016860;28;20128;-68
2023/01/06 01:23:49;;;;;;;6.25;3.20;;;10.40;99.90;;;;;;5034839;28;20449;-68
2023/01/06 01:26:15;;;;;;;8.05;3.20;;;10.40;99.90;;;;;;5016859;28;20417;-68
2023/01/06 01:28:41;;;;;;;10.70;3.63;;;10.30;99.90;;;;;;5016749;28;20060;-68
2023/01/06 01:31:06;;;;;;;5.03;2.88;;;10.30;99.90;;;;;;5034529;28;20531;-67
2023/01/06 01:33:32;;;;;;;5.38;2.88;;;10.20;99.90;;;;;;5016607;28;20405;-67
2023/01/06 01:36:05;;;;;;;4.82;3.20;;;10.20;99.90;;;;;;5033997;28;20049;-67
2023/01/06 01:38:31;;;;;;;7.60;3.35;;;10.20;99.90;;;;;;5034304;28;20049;-68
2023/01/06 01:40:56;;;;;;;6.97;3.25;;;10.20;99.90;;;;;;5016951;28;20584;-68
2023/01/06 01:43:22;;;;;;;12.93;3.67;;;10.90;99.90;;;;;;5034505;28;20045;-68
2023/01/06 01:45:51;;;;;;;9.55;4.30;;;10.30;99.90;;;;;;5016480;28;20427;-68
2023/01/06 01:48:26;;;;;;;7.25;3.05;;;10.20;99.90;;;;;;5016463;28;20068;-67
2023/01/06 01:50:55;;;;;;;4.70;2.67;;;10.30;99.90;;;;;;5034332;28;20172;-68
2023/01/06 01:53:31;;;;;;;5.07;3.08;;;10.30;99.90;;;;;;5016229;28;20334;-68
2023/01/06 01:56:01;;;;;;;6.10;3.30;;;10.30;99.90;;;;;;5016556;28;20127;-68
2023/01/06 01:59:03;;;;;;;7.32;3.80;;;10.30;99.90;;;;;;5034180;28;20149;-68
2023/01/06 02:01:30;;;;;;;5.90;3.05;;;10.30;99.90;;;;;;5016731;28;20045;-68
2023/01/06 02:03:55;;;;;;;6.85;3.80;;;10.30;99.90;;;;;;5016172;28;20116;-68
2023/01/06 02:06:24;;;;;;;5.95;3.53;;;10.30;99.90;;;;;;5033671;28;20136;-67
2023/01/06 02:09:12;;;;;;;5.07;3.33;;;10.30;99.90;;;;;;5016238;28;20042;-67
2023/01/06 02:11:39;;;;;;;7.15;3.45;;;10.30;99.90;;;;;;5033962;28;20052;-67
2023/01/06 02:14:07;;;;;;;6.53;2.58;;;10.20;99.90;;;;;;5015884;28;20049;-67
2023/01/06 02:16:45;;;;;;;6.00;3.70;;;10.30;99.90;;;;;;5015899;28;20056;-67
2023/01/06 02:19:36;;;;;;;5.35;2.65;;;10.20;99.90;;;;;;5016199;28;20399;-68
2023/01/06 02:22:21;;;;;;;4.17;2.80;;;10.30;99.90;;;;;;5033772;28;20481;-67
2023/01/06 02:25:14;;;;;;;5.82;3.30;;;10.30;99.90;;;;;;5033721;28;20045;-68
2023/01/06 02:27:58;;;;;;;5.18;3.35;;;10.30;99.90;;;;;;5015942;28;20049;-67
2023/01/06 02:30:55;;;;;;;8.60;2.95;;;10.30;99.90;;;;;;5015552;28;20049;-68
2023/01/06 02:33:37;;;;;;;4.53;2.60;;;10.30;99.90;;;;;;5015587;28;20120;-67
2023/01/06 02:36:21;;;;;;;3.72;2.45;;;10.30;99.90;;;;;;5033296;28;20045;-68
2023/01/06 02:42:39;;;;;;;8.33;2.30;;;10.30;99.90;;;;;;5096299;22;20474;-70
2023/01/06 02:45:36;;;;;;;4.10;2.75;;;10.30;99.90;;;;;;5056765;28;20500;-70
2023/01/06 02:48:23;;;;;;;11.68;3.50;;;10.20;99.90;;;;;;5038623;28;20052;-70
2023/01/06 02:51:16;;;;;;;5.15;2.92;;;10.20;99.90;;;;;;5020384;28;20041;-70
2023/01/06 02:54:29;;;;;;;4.88;2.50;;;10.20;99.90;;;;;;5020739;28;20056;-70
2023/01/06 02:57:26;;;;;;;6.70;2.70;;;10.20;99.90;;;;;;4956245;28;20058;-70
2023/01/06 03:00:35;;;;;;;5.25;2.85;;;10.20;99.90;;;;;;4937779;28;20195;-70
2023/01/06 03:03:14;;;;;;;4.65;2.38;;;10.20;99.90;;;;;;4956253;28;20046;-70
2023/01/06 03:06:16;;;;;;;5.00;2.63;;;10.20;99.90;;;;;;4972244;28;20046;-70
2023/01/06 03:09:24;;;;;;;4.95;2.28;;;10.20;99.90;;;;;;5009600;28;20446;-70
2023/01/06 03:12:35;;;;;;;4.53;2.28;;;10.30;99.90;;;;;;5027088;28;20504;-70
2023/01/06 03:15:20;;;;;;;9.75;2.65;;;10.20;99.90;;;;;;5034893;28;20487;-70
2023/01/06 03:17:58;;;;;;;4.35;2.00;;;10.20;99.90;;;;;;5035274;28;20045;-70
2023/01/06 03:20:30;;;;;;;3.58;2.25;;;10.20;99.90;;;;;;5019174;28;20369;-69
2023/01/06 03:22:56;;;;;;;4.45;2.47;;;10.20;99.90;;;;;;5034956;28;20395;-69
2023/01/06 03:25:22;;;;;;;5.78;2.20;;;10.30;99.90;;;;;;5035173;28;20041;-69
2023/01/06 03:27:51;;;;;;;4.38;2.22;;;10.20;99.90;;;;;;5053078;28;20036;-69
2023/01/06 03:33:58;;;;;;;5.03;2.40;;;10.20;99.90;;;;;;5047483;28;20106;-70
2023/01/06 03:37:05;;;;;;;7.03;2.30;;;10.30;99.90;;;;;;5035286;28;20091;-71
2023/01/06 03:40:16;;;;;;;4.25;2.30;;;11.30;99.90;;;;;;5019466;28;20087;-71
2023/01/06 03:46:36;;;;;;;3.97;2.25;;;10.20;99.90;;;;;;4955076;28;20054;-69
2023/01/06 03:49:26;;;;;;;2.78;1.77;;;10.20;99.90;;;;;;4968043;28;20048;-69
2023/01/06 03:52:08;;;;;;;3.35;2.13;;;10.20;99.90;;;;;;5034897;28;20049;-69
2023/01/06 03:54:43;;;;;;;3.67;1.50;;;10.20;99.90;;;;;;5018194;28;20041;-69
2023/01/06 03:57:21;;;;;;;2.47;1.88;;;10.20;99.90;;;;;;5053166;28;20132;-70
2023/01/06 04:00:08;;;;;;;5.05;2.00;;;10.20;99.90;;;;;;5021928;28;20398;-69
2023/01/06 04:02:43;;;;;;;2.70;2.17;;;10.20;99.90;;;;;;5022071;28;20072;-71
2023/01/06 04:05:31;;;;;;;6.30;2.95;;;10.30;99.90;;;;;;5056075;28;20044;-71
2023/01/06 04:08:32;;;;;;;;;;;;;;;;;;;;;
2023/01/06 04:11:00;;;;;;;4.25;2.33;;;10.30;99.90;;;;;;5038290;28;20096;-69
2023/01/06 04:13:38;;;;;;;10.05;2.70;;;10.20;99.90;;;;;;5038031;28;20129;-69
2023/01/06 04:16:22;;;;;;;3.33;2.05;;;10.20;99.90;;;;;;5007948;28;20106;-70
2023/01/06 04:19:28;;;;;;;2.90;2.45;;;11.70;99.90;;;;;;5021511;28;20149;-69
2023/01/06 04:21:52;;;;;;;2.88;1.67;;;10.20;99.90;;;;;;5050008;28;20488;-69
2023/01/06 04:24:25;;;;;;;5.03;2.15;;;10.20;99.90;;;;;;5020665;28;20060;-69
2023/01/06 04:26:53;;;;;;;5.25;2.35;;;10.20;99.90;;;;;;5022048;28;20037;-70
2023/01/06 04:29:19;;;;;;;4.43;2.60;;;10.20;99.90;;;;;;5037737;28;20059;-69
2023/01/06 04:31:45;;;;;;;4.35;2.60;;;9.60;99.90;;;;;;5021196;28;20052;-69
2023/01/06 04:34:18;;;;;;;5.60;2.22;;;10.10;99.90;;;;;;5055798;28;20037;-69
2023/01/06 04:36:46;;;;;;;3.00;2.17;;;10.10;99.90;;;;;;5021681;28;20496;-70
2023/01/06 04:39:15;;;;;;;3.67;2.45;;;10.10;99.90;;;;;;5055836;28;20099;-70
2023/01/06 04:41:59;;;;;;;5.07;3.17;;;10.10;99.90;;;;;;5055476;28;20547;-70
2023/01/06 04:44:38;;;;;;;2.40;2.00;;;10.10;99.90;;;;;;5021392;28;20068;-70
2023/01/06 04:47:08;;;;;;;2.60;2.03;;;10.10;99.90;;;;;;5021318;28;20136;-69
2023/01/06 04:49:46;;;;;;;4.03;2.45;;;10.10;99.90;;;;;;5022457;28;20045;-69
2023/01/06 04:52:18;;;;;;;3.08;2.33;;;10.10;99.90;;;;;;5021610;28;20079;-69
2023/01/06 04:55:19;;;;;;;3.17;1.30;;;10.10;99.90;;;;;;5021395;28;20087;-68
2023/01/06 04:57:54;;;;;;;4.30;2.78;;;10.10;99.90;;;;;;5055104;28;20045;-69
2023/01/06 05:00:20;;;;;;;4.75;3.00;;;10.20;99.90;;;;;;5035298;28;20045;-69
2023/01/06 05:02:47;;;;;;;6.00;3.08;;;10.20;99.90;;;;;;5037255;28;20098;-69
2023/01/06 05:05:13;;;;;;;8.20;3.25;;;10.20;99.90;;;;;;5054938;28;20052;-69
2023/01/06 05:07:48;;;;;;;3.15;2.38;;;10.10;99.90;;;;;;5037078;28;20087;-69
2023/01/06 05:10:22;;;;;;;6.60;2.60;;;10.20;99.90;;;;;;5036676;28;20080;-69
2023/01/06 05:13:02;;;;;;;4.25;2.90;;;10.10;99.90;;;;;;5037311;28;20045;-69
2023/01/06 05:15:44;;;;;;;3.97;2.90;;;10.10;99.90;;;;;;5038558;28;20544;-69
2023/01/06 05:18:13;;;;;;;5.32;2.90;;;10.00;99.90;;;;;;5054769;28;20041;-69
2023/01/06 05:20:39;;;;;;;4.95;3.58;;;10.10;99.90;;;;;;5043912;28;20091;-69
2023/01/06 05:23:15;;;;;;;4.25;2.92;;;10.20;99.90;;;;;;5037064;28;20104;-69
2023/01/06 05:25:44;;;;;;;6.35;3.58;;;10.10;99.90;;;;;;5020730;28;20102;-69
2023/01/06 05:28:10;;;;;;;4.95;3.42;;;9.80;99.90;;;;;;5036844;28;20055;-69
2023/01/06 05:31:06;;;;;;;5.38;3.28;;;10.10;99.90;;;;;;5036606;28;20381;-69
2023/01/06 05:36:33;;;;;;;3.47;2.38;;;10.10;99.90;;;;;;5022760;28;20496;-70
2023/01/06 05:42:46;;;;;;;10.02;2.40;;;10.20;99.90;;;;;;5013168;28;20471;-70
2023/01/06 05:45:41;;;;;;;2.65;2.10;;;10.20;99.90;;;;;;4997030;28;20046;-70
2023/01/06 05:48:07;;;;;;;4.07;2.30;;;10.00;99.90;;;;;;5010503;28;20052;-70
2023/01/06 05:50:45;;;;;;;2.85;2.05;;;10.30;99.90;;;;;;5014541;28;20046;-69
2023/01/06 05:53:26;;;;;;;2.70;1.63;;;10.30;99.90;;;;;;5012963;28;20404;-69
2023/01/06 05:56:14;;;;;;;2.47;1.80;;;10.30;99.90;;;;;;5014394;28;20046;-72
2023/01/06 05:59:11;;;;;;;3.60;1.60;;;10.30;99.90;;;;;;5011001;28;20042;-69
2023/01/06 06:01:52;;;;;;;2.22;1.35;;;10.30;99.90;;;;;;5013503;28;20103;-69
2023/01/06 06:04:18;;;;;;;1.75;1.33;;;10.20;99.90;;;;;;5029487;28;20052;-69
2023/01/06 06:06:44;;;;;;;2.90;1.67;;;10.30;99.90;;;;;;5014483;28;20042;-69
2023/01/06 06:09:51;;;;;;;;;;;;;;;;;;;;;
2023/01/06 06:12:20;;;;;;;1.58;1.20;;;10.20;99.90;;;;;;5012994;28;20058;-70
2023/01/06 06:15:27;;;;;;;3.42;1.98;;;10.10;99.90;;;;;;5014074;28;20041;-70
2023/01/06 06:17:52;;;;;;;5.22;2.40;;;10.10;99.90;;;;;;5012686;28;20085;-70
2023/01/06 06:20:53;;;;;;;5.97;2.38;;;10.20;99.90;;;;;;5012675;28;20453;-69
2023/01/06 06:23:26;;;;;;;4.10;2.53;;;10.10;99.90;;;;;;4997403;28;20057;-70
2023/01/06 06:25:55;;;;;;;6.15;2.90;;;10.10;99.90;;;;;;4996793;28;20472;-70
2023/01/06 06:28:46;;;;;;;2.70;1.98;;;10.10;99.90;;;;;;4996579;28;20146;-69
2023/01/06 06:34:19;;;;;;;3.75;2.58;;;10.00;99.90;;;;;;5025353;28;20393;-69
2023/01/06 06:36:51;;;;;;;4.05;2.35;;;10.00;99.90;;;;;;5012806;28;20046;-69
2023/01/06 06:39:20;;;;;;;4.20;2.30;;;10.00;99.90;;;;;;4996113;28;20038;-69
2023/01/06 06:41:46;;;;;;;3.22;2.33;;;10.00;99.90;;;;;;5021292;28;20049;-69
2023/01/06 06:44:11;;;;;;;7.80;2.88;;;9.90;99.90;;;;;;5033305;28;20045;-70
2023/01/06 06:50:01;;;;;;;7.13;2.20;;;10.00;99.90;;;;;;5002037;28;20045;-70
2023/01/06 06:52:31;;;;;;;9.38;2.95;;;9.90;99.90;;;;;;5015812;28;20415;-70
2023/01/06 06:55:06;;;;;;;4.55;2.75;;;9.90;99.90;;;;;;5015482;28;20407;-70
2023/01/06 06:57:31;;;;;;;3.70;2.28;;;9.90;99.90;;;;;;5033366;28;20063;-70
2023/01/06 06:59:57;;;;;;;4.57;2.40;;;9.90;99.90;;;;;;5031834;28;20096;-70
2023/01/06 07:05:37;;;;;;;2.47;1.83;;;9.80;99.90;;;;;;5031711;28;20049;-70
2023/01/06 07:08:07;;;;;;;3.17;2.00;;;12.00;99.90;;;;;;5033359;28;20052;-70
2023/01/06 07:10:33;;;;;;;2.70;2.05;;;9.60;99.90;;;;;;5031764;28;20046;-70
2023/01/06 07:13:01;;;;;;;4.20;2.60;;;9.80;99.90;;;;;;5031917;28;20186;-69
2023/01/06 07:15:43;;;;;;;3.30;2.45;;;9.80;99.90;;;;;;5033237;28;20384;-70
2023/01/06 07:19:01;;;;;;;4.25;2.97;;;9.70;99.90;;;;;;5015850;28;20497;-70
2023/01/06 07:21:55;;;;;;;2.72;1.92;;;9.70;99.90;;;;;;4879756;29;20100;-69
2023/01/06 07:25:15;;;;;;;6.07;1.80;;;11.00;99.90;;;;;;4895721;29;20512;-69
2023/01/06 07:27:46;;;;;;;3.53;2.33;;;9.80;99.90;;;;;;4872195;29;20049;-69
2023/01/06 07:32:48;;;;;;;4.15;2.55;;;9.70;99.90;;;;;;5175868;22;20406;-67
2023/01/06 07:35:14;;;;;;;3.92;2.28;;;9.70;99.90;;;;;;5038585;28;20045;-67
2023/01/06 07:37:40;;;;;;;5.30;2.47;;;9.70;99.90;;;;;;5056888;28;20051;-67
2023/01/06 07:40:06;;;;;;;3.13;2.20;;;9.70;99.90;;;;;;5056804;28;20115;-68
2023/01/06 07:42:33;;;;;;;2.72;2.15;;;9.70;99.90;;;;;;5038861;28;20044;-71
2023/01/06 07:44:59;;;;;;;5.22;2.58;;;9.80;99.90;;;;;;5038874;28;20045;-72
2023/01/06 07:47:24;;;;;;;5.20;2.70;;;9.70;99.90;;;;;;5038551;28;20050;-67
2023/01/06 07:49:50;;;;;;;2.63;1.95;;;9.80;99.90;;;;;;5022108;28;20049;-67
2023/01/06 07:52:16;;;;;;;2.53;1.85;;;9.70;99.90;;;;;;5056374;28;20039;-68
2023/01/06 07:54:41;;;;;;;2.67;2.00;;;9.80;99.90;;;;;;5056517;28;20044;-67
2023/01/06 07:57:07;;;;;;;7.18;2.35;;;9.70;99.90;;;;;;5056535;28;20028;-67
2023/01/06 07:59:32;;;;;;;3.83;1.65;;;10.00;99.90;;;;;;5038516;28;20043;-68
2023/01/06 08:01:58;;;;;;;3.63;1.77;;;9.70;99.90;;;;;;5038542;28;20071;-67
2023/01/06 08:04:24;;;;;;;3.63;1.80;;;9.70;99.90;;;;;;5056172;28;20373;-67
2023/01/06 08:06:49;;;;;;;2.67;1.30;;;9.70;99.90;;;;;;5056139;28;20045;-67
2023/01/06 08:09:15;;;;;;;2.83;1.77;;;9.70;99.90;;;;;;5056156;28;20051;-67
2023/01/06 08:11:40;;;;;;;1.88;1.40;;;9.70;99.90;;;;;;5056145;28;20055;-67
2023/01/06 08:14:06;;;;;;;2.10;1.20;;;9.70;99.90;;;;;;5055971;28;20041;-70
2023/01/06 08:16:32;;;;;;;1.83;1.10;;;9.70;99.90;;;;;;5021641;28;20361;-71
2023/01/06 08:18:57;;;;;;;1.00;0.80;;;9.70;99.90;;;;;;5055999;28;20033;-67
2023/01/06 08:21:23;;;;;;;1.55;0.65;;;9.70;99.90;;;;;;5055595;28;20138;-67
2023/01/06 08:23:48;;;;;;;1.00;0.90;;;9.60;99.90;;;;;;5055889;28;20047;-67
2023/01/06 08:26:16;;;;;;;2.25;0.50;;;9.60;99.90;;;;;;5055799;28;20045;-67
2023/01/06 08:28:44;;;;;;;1.33;0.90;;;9.50;99.90;;;;;;5055852;28;20037;-70
2023/01/06 08:31:12;;;;;;;1.15;0.70;;;9.40;99.90;;;;;;5037567;28;20049;-67
2023/01/06 08:33:38;;;;;;;2.30;1.02;;;9.30;99.90;;;;;;5055318;28;20128;-68
2023/01/06 08:36:07;;;;;;;3.92;1.02;;;9.30;99.90;;;;;;5055720;28;20116;-72
2023/01/06 08:38:34;;;;;;;0.98;0.63;;;9.20;99.90;;;;;;5037490;28;20037;-67
2023/01/06 08:41:00;;;;;;;0.82;0.57;;;9.10;99.90;;;;;;5055271;28;20033;-68
2023/01/06 08:43:26;;;;;;;1.27;0.65;;;9.00;99.90;;;;;;5055410;28;20545;-67
2023/01/06 08:45:52;;;;;;;0.77;0.40;;;9.00;99.90;;;;;;5037345;28;20090;-68
2023/01/06 08:48:18;;;;;;;1.58;0.73;;;9.00;99.90;;;;;;5021239;28;20045;-68
2023/01/06 08:50:44;;;;;;;0.73;0.40;;;8.90;99.90;;;;;;5037315;28;20044;-67
2023/01/06 08:53:11;;;;;;;1.80;0.40;;;8.90;99.90;;;;;;5055219;28;20037;-67
2023/01/06 08:55:38;;;;;;;2.05;0.60;;;8.90;99.90;;;;;;5055462;28;20484;-67
2023/01/06 08:58:04;;;;;;;1.40;0.57;;;8.80;99.90;;;;;;5055381;28;20043;-67
2023/01/06 09:00:30;;;;;;;0.98;0.68;;;8.90;99.90;;;;;;5055322;28;20045;-69
2023/01/06 09:02:55;;;;;;;0.40;0.40;;;9.90;99.90;;;;;;5037160;28;20037;-67
2023/01/06 09:05:21;;;;;;;3.03;0.52;;;8.80;99.90;;;;;;5055248;28;20110;-67
2023/01/06 09:07:47;;;;;;;1.27;0.50;;;8.60;99.90;;;;;;5055228;28;20037;-67
2023/01/06 09:10:12;;;;;;;0.30;0.30;;;8.80;99.90;;;;;;5055112;28;20143;-67
2023/01/06 09:12:38;;;;;;;1.50;0.43;;;8.70;99.90;;;;;;5055067;28;20511;-68
2023/01/06 09:15:04;;;;;;;3.95;0.60;;;8.80;99.90;;;;;;5054711;28;20425;-69
2023/01/06 09:17:30;;;;;;;0.82;0.40;;;8.70;99.90;;;;;;5037188;28;20504;-68
2023/01/06 09:19:56;;;;;;;2.03;0.45;;;8.70;99.90;;;;;;5054912;28;20047;-67
2023/01/06 09:22:22;;;;;;;0.73;0.50;;;8.70;99.90;;;;;;5054910;28;20124;-67
2023/01/06 09:24:47;;;;;;;0.52;0.43;;;8.70;99.90;;;;;;5054901;28;20551;-68
2023/01/06 09:27:13;;;;;;;3.72;0.50;;;8.70;99.90;;;;;;5054828;28;20116;-68
2023/01/06 09:29:39;;;;;;;6.38;0.60;;;8.70;99.90;;;;;;5054881;28;20377;-68
2023/01/06 09:32:04;;;;;;;0.20;0.20;;;9.00;99.90;;;;;;5054735;28;20471;-68
2023/01/06 09:34:30;;;;;;;1.45;0.57;;;8.70;99.90;;;;;;5054213;28;20053;-68
2023/01/06 09:36:56;;;;;;;1.45;0.45;;;8.70;99.90;;;;;;5054445;28;20130;-68
2023/01/06 09:39:21;;;;;;;4.47;0.60;;;8.60;99.90;;;;;;5054645;28;20406;-68
2023/01/06 09:42:19;;;;;;;0.43;0.40;;;8.70;99.90;;;;;;5054592;28;20029;-68
2023/01/06 09:44:52;;;;;;;5.93;1.02;;;8.70;99.90;;;;;;5036659;28;20052;-68
2023/01/06 09:47:22;;;;;;;1.52;0.63;;;8.70;99.90;;;;;;5036288;28;20064;-71
2023/01/06 09:49:54;;;;;;;6.88;0.77;;;8.70;99.90;;;;;;5036559;28;20044;-69
2023/01/06 09:52:28;;;;;;;1.17;0.98;;;8.70;99.90;;;;;;5054116;28;20032;-68
2023/01/06 09:54:56;;;;;;;2.60;0.52;;;8.70;99.90;;;;;;5053441;28;20056;-69
2023/01/06 09:57:31;;;;;;;1.55;0.30;;;8.70;99.90;;;;;;5054228;28;20472;-68
2023/01/06 10:00:04;;;;;;;2.72;0.57;;;8.70;99.90;;;;;;5036356;28;20036;-69
2023/01/06 10:02:38;;;;;;;1.50;0.68;;;8.70;99.90;;;;;;5054144;28;20073;-68
2023/01/06 10:05:27;;;;;;;2.72;0.40;;;8.70;99.90;;;;;;5054136;28;20480;-68
2023/01/06 10:11:52;;;;;;;5.20;0.40;;;8.80;99.90;;;;;;5053797;28;20071;-68
2023/01/06 10:14:29;;;;;;;2.50;0.25;;;8.80;99.90;;;;;;5053918;28;20063;-68
2023/01/06 10:17:36;;;;;;;4.57;0.38;;;8.80;99.90;;;;;;5053619;28;20111;-68
2023/01/06 10:20:29;;;;;;;3.65;0.75;;;8.80;99.90;;;;;;5036039;28;20056;-72
2023/01/06 10:23:19;;;;;;;2.15;0.55;;;8.80;99.90;;;;;;5035684;28;20458;-68
2023/01/06 10:26:07;;;;;;;2.27;0.63;;;8.80;99.90;;;;;;5053795;28;20472;-69
2023/01/06 10:28:43;;;;;;;3.75;0.43;;;8.90;99.90;;;;;;5035598;28;20139;-69
2023/01/06 10:31:16;;;;;;;6.07;1.02;;;8.90;99.90;;;;;;5035582;28;20033;-69
2023/01/06 10:33:53;;;;;;;2.10;0.40;;;9.00;99.90;;;;;;5035347;28;20499;-68
2023/01/06 10:36:38;;;;;;;4.95;0.60;;;9.00;99.90;;;;;;5035410;28;20465;-68
2023/01/06 10:39:07;;;;;;;2.83;0.95;;;9.00;99.90;;;;;;5035458;28;20116;-68
2023/01/06 10:41:47;;;;;;;2.17;1.17;;;9.10;99.90;;;;;;5019287;28;20078;-68
2023/01/06 10:44:13;;;;;;;2.95;0.85;;;9.10;99.90;;;;;;5053416;28;20127;-70
2023/01/06 10:46:40;;;;;;;0.98;0.40;;;9.10;99.90;;;;;;5035253;28;20085;-68
2023/01/06 10:49:15;;;;;;;2.78;0.95;;;9.20;99.90;;;;;;5053386;28;20500;-69
2023/01/06 10:51:44;;;;;;;1.17;0.50;;;9.20;99.90;;;;;;5053313;28;20119;-68
2023/01/06 10:54:16;;;;;;;0.20;0.20;;;9.20;99.90;;;;;;5035077;28;20049;-69
2023/01/06 10:56:51;;;;;;;0.75;0.35;;;9.80;99.90;;;;;;5035386;28;20080;-69
2023/01/06 10:59:17;;;;;;;3.00;0.63;;;9.30;99.90;;;;;;5053277;28;20067;-68
2023/01/06 11:01:55;;;;;;;1.30;0.50;;;9.30;99.90;;;;;;5053176;28;20045;-68
2023/01/06 11:04:21;;;;;;;1.10;0.50;;;9.30;99.90;;;;;;5034996;28;20056;-68
2023/01/06 11:06:54;;;;;;;0.73;0.65;;;9.30;99.90;;;;;;5052422;28;20045;-68
2023/01/06 11:09:35;;;;;;;0.68;0.40;;;9.40;99.90;;;;;;5053097;28;20496;-69
2023/01/06 11:12:25;;;;;;;3.53;0.80;;;9.40;99.90;;;;;;5053082;28;20399;-68
2023/01/06 11:15:05;;;;;;;4.65;1.25;;;9.50;99.90;;;;;;5034910;28;20124;-69
2023/01/06 11:17:31;;;;;;;1.38;0.50;;;9.50;99.90;;;;;;5034987;28;20041;-67
2023/01/06 11:20:31;;;;;;;1.63;0.55;;;9.50;99.90;;;;;;5034915;28;20049;-68
2023/01/06 11:23:12;;;;;;;1.85;0.55;;;9.60;99.90;;;;;;5035267;28;20621;-68
2023/01/06 11:25:38;;;;;;;3.22;0.50;;;9.60;99.90;;;;;;5052978;28;20045;-67
2023/01/06 11:28:16;;;;;;;5.75;0.80;;;9.70;99.90;;;;;;5034897;28;20063;-67
2023/01/06 11:31:13;;;;;;;5.93;0.45;;;9.70;99.90;;;;;;5052611;28;20124;-69
2023/01/06 11:34:02;;;;;;;3.28;0.50;;;9.70;99.90;;;;;;5018934;28;20474;-67
2023/01/06 11:36:31;;;;;;;2.30;0.38;;;9.80;99.90;;;;;;5052887;28;20429;-67
2023/01/06 11:38:58;;;;;;;4.90;0.93;;;9.90;99.90;;;;;;5052587;28;20119;-67
2023/01/06 11:41:39;;;;;;;2.65;0.60;;;9.90;99.90;;;;;;5051621;28;20068;-69
2023/01/06 11:44:08;;;;;;;6.25;0.80;;;10.00;99.90;;;;;;5052803;28;20041;-67
2023/01/06 11:46:36;;;;;;;2.13;0.82;;;10.10;99.90;;;;;;5035084;28;20048;-70
2023/01/06 11:49:08;;;;;;;1.25;0.47;;;10.20;99.90;;;;;;5052707;28;20052;-71
2023/01/06 11:51:39;;;;;;;2.40;0.60;;;10.20;99.90;;;;;;5052750;28;20532;-68
2023/01/06 11:54:24;;;;;;;6.72;1.08;;;10.70;99.90;;;;;;5034541;28;20073;-69
2023/01/06 11:57:20;;;;;;;5.65;1.30;;;10.60;99.90;;;;;;5034799;28;20599;-72
2023/01/06 12:00:18;;;;;;;3.92;0.50;;;10.70;99.90;;;;;;4994688;28;20132;-69
2023/01/06 12:02:53;;;;;;;1.42;0.70;;;10.80;99.90;;;;;;5002864;28;20132;-69
2023/01/06 12:05:35;;;;;;;1.88;0.57;;;10.80;99.90;;;;;;5052572;28;20045;-69
2023/01/06 12:08:05;;;;;;;0.90;0.50;;;11.00;99.90;;;;;;5034419;28;20464;-69
2023/01/06 12:10:34;;;;;;;3.00;0.40;;;10.60;99.90;;;;;;5034562;28;20040;-69
2023/01/06 12:13:00;;;;;;;5.43;0.50;;;10.90;99.90;;;;;;5034388;28;20106;-73
2023/01/06 12:15:29;;;;;;;1.92;0.77;;;10.60;99.90;;;;;;5034364;28;20037;-70
2023/01/06 12:18:09;;;;;;;1.15;0.43;;;10.90;99.90;;;;;;5034480;28;20053;-72
2023/01/06 12:20:40;;;;;;;2.13;0.52;;;10.90;99.90;;;;;;5038324;28;20047;-72
2023/01/06 12:23:20;;;;;;;3.25;0.90;;;;;;;;;;5037922;28;20166;-69
2023/01/06 12:25:48;;;;;;;1.63;0.97;;;10.60;99.90;;;;;;5038211;28;20156;-72
2023/01/06 12:28:15;;;;;;;2.95;0.85;;;10.40;99.90;;;;;;5037882;28;20377;-72
2023/01/06 12:30:43;;;;;;;1.17;0.60;;;10.30;99.90;;;;;;5037846;28;20089;-76
2023/01/06 12:33:51;;;;;;;5.75;0.77;;;10.20;99.90;;;;;;5037594;28;20079;-69
2023/01/06 12:36:45;;;;;;;4.07;0.85;;;10.10;99.90;;;;;;5021115;28;20053;-72
2023/01/06 12:39:21;;;;;;;1.70;0.50;;;10.00;99.90;;;;;;5037602;28;20120;-72
2023/01/06 12:42:18;;;;;;;6.63;0.90;;;9.90;99.90;;;;;;5037546;28;20049;-69
2023/01/06 12:44:52;;;;;;;2.92;0.63;;;9.90;99.90;;;;;;5024630;28;20122;-68
2023/01/06 12:47:38;;;;;;;3.22;1.00;;;9.80;99.90;;;;;;5055317;28;20041;-68
2023/01/06 12:50:23;;;;;;;1.15;0.40;;;;;;;;;;5037771;28;20073;-68
2023/01/06 12:52:51;;;;;;;1.02;0.60;;;;;;;;;;5055510;28;20120;-68
2023/01/06 12:55:23;;;;;;;3.22;0.50;;;;;;;;;;5055399;28;20033;-68
2023/01/06 12:58:04;;;;;;;1.80;0.55;;;;;;;;;;5037358;28;20052;-68
2023/01/06 13:00:41;;;;;;;1.57;0.80;;;;;;;;;;5055495;28;20120;-68
2023/01/06 13:03:10;;;;;;;3.92;0.60;;;;;;;;;;5037556;28;20388;-68
2023/01/06 13:05:49;;;;;;;0.90;0.55;;;;;;;;;;5020615;28;20435;-68
2023/01/06 13:08:21;;;;;;;1.08;0.57;;;;;;;;;;5055256;28;20071;-68
2023/01/06 13:10:52;;;;;;;1.98;0.70;;;;;;;;;;5037360;28;20044;-69
2023/01/06 13:13:18;;;;;;;;;;;;;;;;;;5055323;28;20037;-69
2023/01/06 13:15:45;;;;;;;3.00;0.60;;;;;;;;;;5055045;28;19917;-69
2023/01/06 13:18:27;;;;;;;0.88;0.52;;;9.60;99.90;;;;;;5020385;28;20049;-70
2023/01/06 13:21:17;;;;;;;3.53;0.40;;;9.60;99.90;;;;;;5055022;28;20051;-71
2023/01/06 13:24:13;;;;;;;2.75;0.73;;;9.50;99.90;;;;;;5037210;28;20064;-70
2023/01/06 13:26:56;;;;;;;2.13;0.93;;;9.50;99.90;;;;;;5037131;28;20124;-69
2023/01/06 13:29:36;;;;;;;3.10;1.58;;;9.50;99.90;;;;;;5019983;28;20041;-69
2023/01/06 13:32:08;;;;;;;1.58;0.75;;;9.50;99.90;;;;;;5054496;28;20037;-73
2023/01/06 13:34:43;;;;;;;8.50;0.40;;;9.50;99.90;;;;;;5036418;28;20072;-69
2023/01/06 13:37:27;;;;;;;3.97;0.88;;;9.40;99.90;;;;;;5054683;28;20041;-71
2023/01/06 13:40:05;;;;;;;1.80;0.82;;;9.70;99.90;;;;;;5054399;28;20037;-70
2023/01/06 13:42:40;;;;;;;1.90;0.52;;;9.70;99.90;;;;;;5036466;28;20120;-72
2023/01/06 13:45:13;;;;;;;1.90;0.50;;;9.40;99.90;;;;;;5036368;28;20071;-72
2023/01/06 13:47:40;;;;;;;3.38;0.85;;;9.40;99.90;;;;;;5019890;28;20040;-69
2023/01/06 13:50:06;;;;;;;3.15;0.60;;;9.40;99.90;;;;;;5054371;28;20512;-71
2023/01/06 13:52:32;;;;;;;1.48;0.50;;;9.30;99.90;;;;;;5036166;28;20090;-69
2023/01/06 13:55:21;;;;;;;3.55;0.65;;;9.30;99.90;;;;;;5036240;28;20041;-68
2023/01/06 13:57:46;;;;;;;2.22;0.77;;;9.30;99.90;;;;;;5054080;28;20032;-68
2023/01/06 14:00:25;;;;;;;4.18;0.75;;;9.30;99.90;;;;;;5036359;28;20115;-69
2023/01/06 14:02:51;;;;;;;2.88;0.40;;;9.30;99.90;;;;;;5054171;28;20391;-69
2023/01/06 14:05:22;;;;;;;3.20;0.60;;;9.20;99.90;;;;;;5054161;28;20033;-68
2023/01/06 14:07:53;;;;;;;1.38;0.50;;;9.20;99.90;;;;;;5054117;28;20045;-69
2023/01/06 14:10:34;;;;;;;3.72;0.98;;;9.20;99.90;;;;;;5035842;28;20044;-69
2023/01/06 14:13:01;;;;;;;7.32;0.88;;;9.20;99.90;;;;;;5036065;28;20052;-72
2023/01/06 14:15:35;;;;;;;4.57;0.55;;;9.20;99.90;;;;;;5019361;28;20052;-68